sensor_id;sensor_type;location;lat;lon;timestamp;P1;durP1;ratioP1;P2;durP2;ratioP2
2934;SDS011;2462;51.456;7.248;2023-05-10T00:01:25;2.63;;;1.83;;
2934;SDS011;2462;51.456;7.248;2023-05-10T00:03:51;2.40;;;1.93;;
2934;SDS011;2462;51.456;7.248;2023-05-10T00:06:17;2.20;;;2.00;;
2934;SDS011;2462;51.456;7.248;2023-05-10T00:08:43;2.97;;;2.30;;
2934;SDS011;2462;51.456;7.248;2023-05-10T00:11:09;2.47;;;2.27;;
2934;SDS011;2462;51.456;7.248;2023-05-10T00:13:35;1.97;;;1.87;;
2934;SDS011;2462;51.456;7.248;2023-05-10T00:16:01;2.10;;;1.90;;
2934;SDS011;2462;51.456;7.248;2023-05-10T00:18:27;2.53;;;2.33;;
2934;SDS011;2462;51.456;7.248;2023-05-10T00:20:53;2.40;;;2.20;;
2934;SDS011;2462;51.456;7.248;2023-05-10T00:23:19;2.30;;;2.10;;
2934;SDS011;2462;51.456;7.248;2023-05-10T00:25:45;3.47;;;2.50;;
2934;SDS011;2462;51.456;7.248;2023-05-10T00:28:11;2.20;;;2.03;;
2934;SDS011;2462;51.456;7.248;2023-05-10T00:30:36;2.43;;;2.23;;
2934;SDS011;2462;51.456;7.248;2023-05-10T00:33:02;2.23;;;2.00;;
2934;SDS011;2462;51.456;7.248;2023-05-10T00:35:28;2.57;;;2.37;;
2934;SDS011;2462;51.456;7.248;2023-05-10T00:37:54;2.20;;;2.00;;
2934;SDS011;2462;51.456;7.248;2023-05-10T00:40:20;2.30;;;2.10;;
2934;SDS011;2462;51.456;7.248;2023-05-10T00:42:46;1.97;;;1.80;;
2934;SDS011;2462;51.456;7.248;2023-05-10T00:45:12;1.93;;;1.67;;
2934;SDS011;2462;51.456;7.248;2023-05-10T00:47:38;2.13;;;1.93;;
2934;SDS011;2462;51.456;7.248;2023-05-10T00:50:05;2.00;;;1.80;;
2934;SDS011;2462;51.456;7.248;2023-05-10T00:52:31;2.43;;;2.23;;
2934;SDS011;2462;51.456;7.248;2023-05-10T00:54:57;2.60;;;2.40;;
2934;SDS011;2462;51.456;7.248;2023-05-10T00:57:23;2.20;;;1.63;;
2934;SDS011;2462;51.456;7.248;2023-05-10T00:59:50;2.00;;;1.90;;
2934;SDS011;2462;51.456;7.248;2023-05-10T01:02:16;2.70;;;2.50;;
2934;SDS011;2462;51.456;7.248;2023-05-10T01:04:42;1.77;;;1.67;;
2934;SDS011;2462;51.456;7.248;2023-05-10T01:07:08;2.03;;;1.80;;
2934;SDS011;2462;51.456;7.248;2023-05-10T01:09:35;2.00;;;1.90;;
2934;SDS011;2462;51.456;7.248;2023-05-10T01:12:01;2.00;;;1.73;;
2934;SDS011;2462;51.456;7.248;2023-05-10T01:14:28;2.50;;;2.30;;
2934;SDS011;2462;51.456;7.248;2023-05-10T01:16:54;2.17;;;1.97;;
2934;SDS011;2462;51.456;7.248;2023-05-10T01:19:24;2.00;;;1.90;;
2934;SDS011;2462;51.456;7.248;2023-05-10T01:24:38;2.10;;;1.90;;
2934;SDS011;2462;51.456;7.248;2023-05-10T01:32:53;2.27;;;2.10;;
2934;SDS011;2462;51.456;7.248;2023-05-10T01:35:35;2.13;;;1.93;;
2934;SDS011;2462;51.456;7.248;2023-05-10T01:40:33;2.70;;;2.50;;
2934;SDS011;2462;51.456;7.248;2023-05-10T01:43:02;2.40;;;2.10;;
2934;SDS011;2462;51.456;7.248;2023-05-10T01:45:30;2.60;;;2.40;;
2934;SDS011;2462;51.456;7.248;2023-05-10T01:47:58;1.97;;;1.87;;
2934;SDS011;2462;51.456;7.248;2023-05-10T01:50:28;2.03;;;1.57;;
2934;SDS011;2462;51.456;7.248;2023-05-10T01:52:55;2.30;;;2.10;;
2934;SDS011;2462;51.456;7.248;2023-05-10T01:55:23;2.13;;;1.93;;
2934;SDS011;2462;51.456;7.248;2023-05-10T01:57:52;2.37;;;2.17;;
2934;SDS011;2462;51.456;7.248;2023-05-10T02:00:19;1.80;;;1.70;;
2934;SDS011;2462;51.456;7.248;2023-05-10T02:02:46;2.47;;;2.27;;
2934;SDS011;2462;51.456;7.248;2023-05-10T02:05:13;2.73;;;2.53;;
2934;SDS011;2462;51.456;7.248;2023-05-10T02:07:40;2.00;;;1.80;;
2934;SDS011;2462;51.456;7.248;2023-05-10T02:10:06;2.20;;;2.00;;
2934;SDS011;2462;51.456;7.248;2023-05-10T02:12:41;2.10;;;1.90;;
2934;SDS011;2462;51.456;7.248;2023-05-10T02:15:07;3.00;;;2.30;;
2934;SDS011;2462;51.456;7.248;2023-05-10T02:17:34;2.20;;;2.00;;
2934;SDS011;2462;51.456;7.248;2023-05-10T02:20:01;2.47;;;2.03;;
2934;SDS011;2462;51.456;7.248;2023-05-10T02:22:28;2.40;;;2.20;;
2934;SDS011;2462;51.456;7.248;2023-05-10T02:24:55;2.30;;;2.10;;
2934;SDS011;2462;51.456;7.248;2023-05-10T02:27:21;1.97;;;1.87;;
2934;SDS011;2462;51.456;7.248;2023-05-10T02:29:48;2.50;;;2.30;;
2934;SDS011;2462;51.456;7.248;2023-05-10T02:32:15;2.27;;;2.07;;
2934;SDS011;2462;51.456;7.248;2023-05-10T02:34:42;2.33;;;2.13;;
2934;SDS011;2462;51.456;7.248;2023-05-10T02:37:10;2.60;;;2.27;;
2934;SDS011;2462;51.456;7.248;2023-05-10T02:39:36;2.37;;;2.17;;
2934;SDS011;2462;51.456;7.248;2023-05-10T02:42:05;1.93;;;1.83;;
2934;SDS011;2462;51.456;7.248;2023-05-10T02:44:31;2.90;;;2.07;;
2934;SDS011;2462;51.456;7.248;2023-05-10T02:46:58;5.40;;;2.57;;
2934;SDS011;2462;51.456;7.248;2023-05-10T02:49:24;2.43;;;2.10;;
2934;SDS011;2462;51.456;7.248;2023-05-10T02:51:51;2.10;;;2.00;;
2934;SDS011;2462;51.456;7.248;2023-05-10T02:54:24;2.73;;;2.30;;
2934;SDS011;2462;51.456;7.248;2023-05-10T02:56:51;3.20;;;2.40;;
2934;SDS011;2462;51.456;7.248;2023-05-10T02:59:18;2.30;;;2.10;;
2934;SDS011;2462;51.456;7.248;2023-05-10T03:01:44;2.10;;;1.90;;
2934;SDS011;2462;51.456;7.248;2023-05-10T03:04:10;2.33;;;1.97;;
2934;SDS011;2462;51.456;7.248;2023-05-10T03:06:36;2.50;;;2.30;;
2934;SDS011;2462;51.456;7.248;2023-05-10T03:09:02;2.40;;;2.20;;
2934;SDS011;2462;51.456;7.248;2023-05-10T03:11:50;4.23;;;2.30;;
2934;SDS011;2462;51.456;7.248;2023-05-10T03:14:42;2.80;;;2.60;;
2934;SDS011;2462;51.456;7.248;2023-05-10T03:17:30;2.47;;;2.27;;
2934;SDS011;2462;51.456;7.248;2023-05-10T03:19:57;2.33;;;2.13;;
2934;SDS011;2462;51.456;7.248;2023-05-10T03:22:29;2.53;;;2.33;;
2934;SDS011;2462;51.456;7.248;2023-05-10T03:24:56;2.13;;;1.93;;
2934;SDS011;2462;51.456;7.248;2023-05-10T03:27:23;2.87;;;2.50;;
2934;SDS011;2462;51.456;7.248;2023-05-10T03:29:50;2.30;;;2.10;;
2934;SDS011;2462;51.456;7.248;2023-05-10T03:32:16;2.40;;;2.20;;
2934;SDS011;2462;51.456;7.248;2023-05-10T03:34:42;2.33;;;2.13;;
2934;SDS011;2462;51.456;7.248;2023-05-10T03:37:08;2.47;;;2.27;;
2934;SDS011;2462;51.456;7.248;2023-05-10T03:39:34;2.50;;;2.27;;
2934;SDS011;2462;51.456;7.248;2023-05-10T03:42:00;2.97;;;2.30;;
2934;SDS011;2462;51.456;7.248;2023-05-10T03:44:26;2.50;;;2.30;;
2934;SDS011;2462;51.456;7.248;2023-05-10T03:46:52;3.10;;;2.90;;
2934;SDS011;2462;51.456;7.248;2023-05-10T03:49:18;3.00;;;2.80;;
2934;SDS011;2462;51.456;7.248;2023-05-10T03:51:44;2.83;;;2.53;;
2934;SDS011;2462;51.456;7.248;2023-05-10T03:54:10;2.60;;;2.40;;
2934;SDS011;2462;51.456;7.248;2023-05-10T03:56:36;4.10;;;2.97;;
2934;SDS011;2462;51.456;7.248;2023-05-10T03:59:02;3.67;;;3.37;;
2934;SDS011;2462;51.456;7.248;2023-05-10T04:01:32;2.67;;;2.33;;
2934;SDS011;2462;51.456;7.248;2023-05-10T04:03:58;2.33;;;2.13;;
2934;SDS011;2462;51.456;7.248;2023-05-10T04:06:24;3.53;;;2.87;;
2934;SDS011;2462;51.456;7.248;2023-05-10T04:08:50;2.70;;;2.50;;
2934;SDS011;2462;51.456;7.248;2023-05-10T04:11:15;2.80;;;2.30;;
2934;SDS011;2462;51.456;7.248;2023-05-10T04:13:41;3.00;;;2.70;;
2934;SDS011;2462;51.456;7.248;2023-05-10T04:16:08;2.60;;;2.40;;
2934;SDS011;2462;51.456;7.248;2023-05-10T04:18:34;2.57;;;2.37;;
2934;SDS011;2462;51.456;7.248;2023-05-10T04:21:00;2.37;;;2.17;;
2934;SDS011;2462;51.456;7.248;2023-05-10T04:23:26;3.20;;;2.37;;
2934;SDS011;2462;51.456;7.248;2023-05-10T04:25:52;3.80;;;2.40;;
2934;SDS011;2462;51.456;7.248;2023-05-10T04:28:18;3.53;;;3.10;;
2934;SDS011;2462;51.456;7.248;2023-05-10T04:30:44;2.87;;;2.40;;
2934;SDS011;2462;51.456;7.248;2023-05-10T04:33:10;3.17;;;2.87;;
2934;SDS011;2462;51.456;7.248;2023-05-10T04:35:36;3.00;;;2.67;;
2934;SDS011;2462;51.456;7.248;2023-05-10T04:38:03;2.77;;;2.57;;
2934;SDS011;2462;51.456;7.248;2023-05-10T04:40:29;2.53;;;2.33;;
2934;SDS011;2462;51.456;7.248;2023-05-10T04:42:55;2.73;;;2.43;;
2934;SDS011;2462;51.456;7.248;2023-05-10T04:45:21;3.63;;;3.33;;
2934;SDS011;2462;51.456;7.248;2023-05-10T04:47:47;3.17;;;2.90;;
2934;SDS011;2462;51.456;7.248;2023-05-10T04:50:13;2.87;;;2.63;;
2934;SDS011;2462;51.456;7.248;2023-05-10T04:52:39;4.73;;;3.13;;
2934;SDS011;2462;51.456;7.248;2023-05-10T04:55:05;4.20;;;2.97;;
2934;SDS011;2462;51.456;7.248;2023-05-10T04:57:32;3.13;;;2.83;;
2934;SDS011;2462;51.456;7.248;2023-05-10T04:59:59;3.10;;;2.80;;
2934;SDS011;2462;51.456;7.248;2023-05-10T05:02:25;3.27;;;2.93;;
2934;SDS011;2462;51.456;7.248;2023-05-10T05:04:51;3.40;;;3.10;;
2934;SDS011;2462;51.456;7.248;2023-05-10T05:07:17;3.10;;;2.80;;
2934;SDS011;2462;51.456;7.248;2023-05-10T05:09:43;3.30;;;3.00;;
2934;SDS011;2462;51.456;7.248;2023-05-10T05:12:09;3.40;;;2.77;;
2934;SDS011;2462;51.456;7.248;2023-05-10T05:14:38;3.23;;;2.93;;
2934;SDS011;2462;51.456;7.248;2023-05-10T05:17:04;3.53;;;3.20;;
2934;SDS011;2462;51.456;7.248;2023-05-10T05:19:31;4.30;;;3.30;;
2934;SDS011;2462;51.456;7.248;2023-05-10T05:21:57;4.20;;;3.60;;
2934;SDS011;2462;51.456;7.248;2023-05-10T05:24:23;3.57;;;3.17;;
2934;SDS011;2462;51.456;7.248;2023-05-10T05:26:49;3.80;;;3.47;;
2934;SDS011;2462;51.456;7.248;2023-05-10T05:29:15;3.60;;;3.30;;
2934;SDS011;2462;51.456;7.248;2023-05-10T05:31:41;3.92;;;3.53;;
2934;SDS011;2462;51.456;7.248;2023-05-10T05:34:06;4.00;;;3.60;;
2934;SDS011;2462;51.456;7.248;2023-05-10T05:36:35;3.60;;;3.30;;
2934;SDS011;2462;51.456;7.248;2023-05-10T05:39:03;4.50;;;4.10;;
2934;SDS011;2462;51.456;7.248;2023-05-10T05:41:29;4.43;;;3.87;;
2934;SDS011;2462;51.456;7.248;2023-05-10T05:43:54;4.27;;;3.87;;
2934;SDS011;2462;51.456;7.248;2023-05-10T05:46:20;4.20;;;3.80;;
2934;SDS011;2462;51.456;7.248;2023-05-10T05:48:46;6.33;;;4.57;;
2934;SDS011;2462;51.456;7.248;2023-05-10T05:51:12;3.60;;;3.30;;
2934;SDS011;2462;51.456;7.248;2023-05-10T05:53:39;3.90;;;3.40;;
2934;SDS011;2462;51.456;7.248;2023-05-10T05:56:05;4.50;;;4.10;;
2934;SDS011;2462;51.456;7.248;2023-05-10T05:58:31;7.03;;;5.07;;
2934;SDS011;2462;51.456;7.248;2023-05-10T06:00:57;6.13;;;4.37;;
2934;SDS011;2462;51.456;7.248;2023-05-10T06:03:23;9.03;;;4.47;;
2934;SDS011;2462;51.456;7.248;2023-05-10T06:05:48;9.77;;;8.30;;
2934;SDS011;2462;51.456;7.248;2023-05-10T06:08:14;7.77;;;6.47;;
2934;SDS011;2462;51.456;7.248;2023-05-10T06:10:40;7.30;;;5.60;;
2934;SDS011;2462;51.456;7.248;2023-05-10T06:13:06;8.40;;;6.90;;
2934;SDS011;2462;51.456;7.248;2023-05-10T06:15:32;7.60;;;6.50;;
2934;SDS011;2462;51.456;7.248;2023-05-10T06:17:58;8.93;;;6.13;;
2934;SDS011;2462;51.456;7.248;2023-05-10T06:20:24;7.33;;;6.50;;
2934;SDS011;2462;51.456;7.248;2023-05-10T06:22:50;8.00;;;6.70;;
2934;SDS011;2462;51.456;7.248;2023-05-10T06:25:16;8.07;;;6.23;;
2934;SDS011;2462;51.456;7.248;2023-05-10T06:27:43;6.70;;;6.00;;
2934;SDS011;2462;51.456;7.248;2023-05-10T06:30:09;7.60;;;6.30;;
2934;SDS011;2462;51.456;7.248;2023-05-10T06:32:36;7.87;;;6.67;;
2934;SDS011;2462;51.456;7.248;2023-05-10T06:35:02;7.83;;;5.73;;
2934;SDS011;2462;51.456;7.248;2023-05-10T06:37:28;8.20;;;6.70;;
2934;SDS011;2462;51.456;7.248;2023-05-10T06:39:54;8.70;;;5.90;;
2934;SDS011;2462;51.456;7.248;2023-05-10T06:42:20;7.50;;;6.33;;
2934;SDS011;2462;51.456;7.248;2023-05-10T06:44:46;9.07;;;6.40;;
2934;SDS011;2462;51.456;7.248;2023-05-10T06:47:12;8.20;;;5.90;;
2934;SDS011;2462;51.456;7.248;2023-05-10T06:49:37;7.90;;;7.10;;
2934;SDS011;2462;51.456;7.248;2023-05-10T06:52:03;6.87;;;6.17;;
2934;SDS011;2462;51.456;7.248;2023-05-10T06:54:30;19.10;;;14.50;;
2934;SDS011;2462;51.456;7.248;2023-05-10T06:56:56;14.40;;;10.93;;
2934;SDS011;2462;51.456;7.248;2023-05-10T06:59:22;9.77;;;8.23;;
2934;SDS011;2462;51.456;7.248;2023-05-10T07:01:48;13.70;;;10.50;;
2934;SDS011;2462;51.456;7.248;2023-05-10T07:04:14;12.57;;;10.60;;
2934;SDS011;2462;51.456;7.248;2023-05-10T07:06:40;10.30;;;8.73;;
2934;SDS011;2462;51.456;7.248;2023-05-10T07:09:06;11.50;;;9.50;;
2934;SDS011;2462;51.456;7.248;2023-05-10T07:11:32;14.80;;;10.27;;
2934;SDS011;2462;51.456;7.248;2023-05-10T07:13:58;15.23;;;11.23;;
2934;SDS011;2462;51.456;7.248;2023-05-10T07:16:24;10.50;;;9.40;;
2934;SDS011;2462;51.456;7.248;2023-05-10T07:18:50;11.13;;;9.90;;
2934;SDS011;2462;51.456;7.248;2023-05-10T07:21:15;12.67;;;9.97;;
2934;SDS011;2462;51.456;7.248;2023-05-10T07:23:41;11.87;;;10.07;;
2934;SDS011;2462;51.456;7.248;2023-05-10T07:26:07;13.33;;;10.83;;
2934;SDS011;2462;51.456;7.248;2023-05-10T07:28:34;11.63;;;9.60;;
2934;SDS011;2462;51.456;7.248;2023-05-10T07:31:02;12.50;;;9.93;;
2934;SDS011;2462;51.456;7.248;2023-05-10T07:33:27;11.97;;;10.03;;
2934;SDS011;2462;51.456;7.248;2023-05-10T07:35:53;11.23;;;9.63;;
2934;SDS011;2462;51.456;7.248;2023-05-10T07:38:19;11.07;;;9.57;;
2934;SDS011;2462;51.456;7.248;2023-05-10T07:40:44;11.10;;;9.07;;
2934;SDS011;2462;51.456;7.248;2023-05-10T07:43:10;11.77;;;9.57;;
2934;SDS011;2462;51.456;7.248;2023-05-10T07:45:35;10.90;;;9.50;;
2934;SDS011;2462;51.456;7.248;2023-05-10T07:48:01;12.40;;;9.97;;
2934;SDS011;2462;51.456;7.248;2023-05-10T07:50:26;10.43;;;9.30;;
2934;SDS011;2462;51.456;7.248;2023-05-10T07:52:52;10.63;;;9.30;;
2934;SDS011;2462;51.456;7.248;2023-05-10T07:55:18;10.43;;;9.33;;
2934;SDS011;2462;51.456;7.248;2023-05-10T07:57:44;10.43;;;9.03;;
2934;SDS011;2462;51.456;7.248;2023-05-10T08:00:11;10.80;;;9.17;;
2934;SDS011;2462;51.456;7.248;2023-05-10T08:02:39;10.70;;;9.57;;
2934;SDS011;2462;51.456;7.248;2023-05-10T08:05:05;9.50;;;8.50;;
2934;SDS011;2462;51.456;7.248;2023-05-10T08:07:31;11.37;;;10.17;;
2934;SDS011;2462;51.456;7.248;2023-05-10T08:09:57;11.23;;;9.83;;
2934;SDS011;2462;51.456;7.248;2023-05-10T08:12:22;10.93;;;9.73;;
2934;SDS011;2462;51.456;7.248;2023-05-10T08:14:48;12.30;;;9.53;;
2934;SDS011;2462;51.456;7.248;2023-05-10T08:17:13;11.23;;;9.20;;
2934;SDS011;2462;51.456;7.248;2023-05-10T08:19:39;10.90;;;9.70;;
2934;SDS011;2462;51.456;7.248;2023-05-10T08:22:04;10.07;;;8.60;;
2934;SDS011;2462;51.456;7.248;2023-05-10T08:24:30;11.77;;;9.80;;
2934;SDS011;2462;51.456;7.248;2023-05-10T08:26:55;12.03;;;10.20;;
2934;SDS011;2462;51.456;7.248;2023-05-10T08:29:21;9.70;;;8.50;;
2934;SDS011;2462;51.456;7.248;2023-05-10T08:31:46;11.30;;;10.07;;
2934;SDS011;2462;51.456;7.248;2023-05-10T08:34:12;12.70;;;9.90;;
2934;SDS011;2462;51.456;7.248;2023-05-10T08:36:37;11.83;;;10.07;;
2934;SDS011;2462;51.456;7.248;2023-05-10T08:39:03;11.93;;;9.10;;
2934;SDS011;2462;51.456;7.248;2023-05-10T08:41:29;11.57;;;9.30;;
2934;SDS011;2462;51.456;7.248;2023-05-10T08:43:56;11.63;;;9.70;;
2934;SDS011;2462;51.456;7.248;2023-05-10T08:46:22;10.43;;;9.10;;
2934;SDS011;2462;51.456;7.248;2023-05-10T08:48:49;11.87;;;9.83;;
2934;SDS011;2462;51.456;7.248;2023-05-10T08:51:19;11.27;;;9.80;;
2934;SDS011;2462;51.456;7.248;2023-05-10T08:53:51;9.73;;;8.27;;
2934;SDS011;2462;51.456;7.248;2023-05-10T08:56:17;9.57;;;8.57;;
2934;SDS011;2462;51.456;7.248;2023-05-10T08:58:43;10.70;;;9.03;;
2934;SDS011;2462;51.456;7.248;2023-05-10T09:01:09;9.40;;;8.23;;
2934;SDS011;2462;51.456;7.248;2023-05-10T09:03:35;9.97;;;8.53;;
2934;SDS011;2462;51.456;7.248;2023-05-10T09:06:03;10.27;;;8.83;;
2934;SDS011;2462;51.456;7.248;2023-05-10T09:08:29;9.93;;;8.80;;
2934;SDS011;2462;51.456;7.248;2023-05-10T09:10:56;12.87;;;8.87;;
2934;SDS011;2462;51.456;7.248;2023-05-10T09:13:22;9.80;;;8.80;;
2934;SDS011;2462;51.456;7.248;2023-05-10T09:15:48;9.47;;;7.97;;
2934;SDS011;2462;51.456;7.248;2023-05-10T09:18:15;11.00;;;8.27;;
2934;SDS011;2462;51.456;7.248;2023-05-10T09:20:40;9.70;;;8.57;;
2934;SDS011;2462;51.456;7.248;2023-05-10T09:23:06;8.70;;;7.80;;
2934;SDS011;2462;51.456;7.248;2023-05-10T09:25:32;8.50;;;7.50;;
2934;SDS011;2462;51.456;7.248;2023-05-10T09:28:01;10.63;;;8.27;;
2934;SDS011;2462;51.456;7.248;2023-05-10T09:30:27;9.70;;;8.33;;
2934;SDS011;2462;51.456;7.248;2023-05-10T09:32:54;9.23;;;7.40;;
2934;SDS011;2462;51.456;7.248;2023-05-10T09:35:23;8.57;;;7.40;;
2934;SDS011;2462;51.456;7.248;2023-05-10T09:37:50;10.13;;;7.20;;
2934;SDS011;2462;51.456;7.248;2023-05-10T09:40:26;8.77;;;7.93;;
2934;SDS011;2462;51.456;7.248;2023-05-10T09:42:56;10.90;;;7.60;;
2934;SDS011;2462;51.456;7.248;2023-05-10T09:45:25;10.00;;;8.07;;
2934;SDS011;2462;51.456;7.248;2023-05-10T09:47:52;13.23;;;7.77;;
2934;SDS011;2462;51.456;7.248;2023-05-10T09:50:18;8.60;;;6.83;;
2934;SDS011;2462;51.456;7.248;2023-05-10T09:55:12;8.13;;;7.33;;
2934;SDS011;2462;51.456;7.248;2023-05-10T09:57:38;8.90;;;7.70;;
2934;SDS011;2462;51.456;7.248;2023-05-10T10:00:04;8.30;;;6.40;;
2934;SDS011;2462;51.456;7.248;2023-05-10T10:02:31;8.60;;;7.00;;
2934;SDS011;2462;51.456;7.248;2023-05-10T10:04:56;8.43;;;7.53;;
2934;SDS011;2462;51.456;7.248;2023-05-10T10:07:22;10.07;;;7.53;;
2934;SDS011;2462;51.456;7.248;2023-05-10T10:09:50;8.73;;;7.43;;
2934;SDS011;2462;51.456;7.248;2023-05-10T10:12:16;8.10;;;7.30;;
2934;SDS011;2462;51.456;7.248;2023-05-10T10:14:41;7.37;;;6.67;;
2934;SDS011;2462;51.456;7.248;2023-05-10T10:17:08;10.23;;;6.83;;
2934;SDS011;2462;51.456;7.248;2023-05-10T10:19:34;8.80;;;6.47;;
2934;SDS011;2462;51.456;7.248;2023-05-10T10:22:00;7.80;;;7.00;;
2934;SDS011;2462;51.456;7.248;2023-05-10T10:24:26;8.70;;;6.50;;
2934;SDS011;2462;51.456;7.248;2023-05-10T10:26:52;8.63;;;6.40;;
2934;SDS011;2462;51.456;7.248;2023-05-10T10:29:26;7.40;;;6.57;;
2934;SDS011;2462;51.456;7.248;2023-05-10T10:32:22;9.07;;;6.53;;
2934;SDS011;2462;51.456;7.248;2023-05-10T10:34:53;8.00;;;6.53;;
2934;SDS011;2462;51.456;7.248;2023-05-10T10:37:20;6.80;;;6.10;;
2934;SDS011;2462;51.456;7.248;2023-05-10T10:39:47;7.00;;;6.30;;
2934;SDS011;2462;51.456;7.248;2023-05-10T10:42:14;8.03;;;6.30;;
2934;SDS011;2462;51.456;7.248;2023-05-10T10:45:11;8.07;;;6.77;;
2934;SDS011;2462;51.456;7.248;2023-05-10T10:47:37;7.60;;;6.17;;
2934;SDS011;2462;51.456;7.248;2023-05-10T10:50:04;8.73;;;6.60;;
2934;SDS011;2462;51.456;7.248;2023-05-10T10:52:36;6.60;;;5.90;;
2934;SDS011;2462;51.456;7.248;2023-05-10T10:55:04;6.60;;;5.97;;
2934;SDS011;2462;51.456;7.248;2023-05-10T10:57:42;13.90;;;10.10;;
2934;SDS011;2462;51.456;7.248;2023-05-10T11:00:19;16.53;;;12.50;;
2934;SDS011;2462;51.456;7.248;2023-05-10T11:02:47;12.67;;;11.37;;
2934;SDS011;2462;51.456;7.248;2023-05-10T11:05:25;15.70;;;10.90;;
2934;SDS011;2462;51.456;7.248;2023-05-10T11:10:36;18.67;;;13.30;;
2934;SDS011;2462;51.456;7.248;2023-05-10T11:13:02;18.17;;;12.83;;
2934;SDS011;2462;51.456;7.248;2023-05-10T11:15:34;17.97;;;13.37;;
2934;SDS011;2462;51.456;7.248;2023-05-10T11:23:23;16.77;;;14.00;;
2934;SDS011;2462;51.456;7.248;2023-05-10T11:25:49;22.77;;;14.47;;
2934;SDS011;2462;51.456;7.248;2023-05-10T11:28:18;19.70;;;14.97;;
2934;SDS011;2462;51.456;7.248;2023-05-10T11:30:44;20.30;;;14.27;;
2934;SDS011;2462;51.456;7.248;2023-05-10T11:33:14;21.73;;;14.25;;
2934;SDS011;2462;51.456;7.248;2023-05-10T11:35:41;16.50;;;13.70;;
2934;SDS011;2462;51.456;7.248;2023-05-10T11:38:07;18.30;;;13.37;;
2934;SDS011;2462;51.456;7.248;2023-05-10T11:40:34;18.27;;;13.07;;
2934;SDS011;2462;51.456;7.248;2023-05-10T11:43:00;15.80;;;12.30;;
2934;SDS011;2462;51.456;7.248;2023-05-10T11:45:26;17.40;;;11.67;;
2934;SDS011;2462;51.456;7.248;2023-05-10T11:47:54;11.63;;;10.40;;
2934;SDS011;2462;51.456;7.248;2023-05-10T11:50:20;16.60;;;11.60;;
2934;SDS011;2462;51.456;7.248;2023-05-10T11:52:50;12.07;;;10.07;;
2934;SDS011;2462;51.456;7.248;2023-05-10T11:55:16;13.93;;;10.23;;
2934;SDS011;2462;51.456;7.248;2023-05-10T11:57:42;14.27;;;10.70;;
2934;SDS011;2462;51.456;7.248;2023-05-10T12:00:10;13.07;;;10.13;;
2934;SDS011;2462;51.456;7.248;2023-05-10T12:02:36;13.33;;;10.00;;
2934;SDS011;2462;51.456;7.248;2023-05-10T12:05:03;16.60;;;10.43;;
2934;SDS011;2462;51.456;7.248;2023-05-10T12:07:30;13.80;;;9.40;;
2934;SDS011;2462;51.456;7.248;2023-05-10T12:10:11;15.13;;;9.88;;
2934;SDS011;2462;51.456;7.248;2023-05-10T12:12:46;17.40;;;9.90;;
2934;SDS011;2462;51.456;7.248;2023-05-10T12:15:21;12.53;;;9.20;;
2934;SDS011;2462;51.456;7.248;2023-05-10T12:17:48;15.30;;;10.43;;
2934;SDS011;2462;51.456;7.248;2023-05-10T12:22:40;10.63;;;9.10;;
2934;SDS011;2462;51.456;7.248;2023-05-10T12:25:07;9.73;;;8.73;;
2934;SDS011;2462;51.456;7.248;2023-05-10T12:27:34;11.70;;;10.00;;
2934;SDS011;2462;51.456;7.248;2023-05-10T12:29:59;17.00;;;11.30;;
2934;SDS011;2462;51.456;7.248;2023-05-10T12:32:41;12.00;;;10.40;;
2934;SDS011;2462;51.456;7.248;2023-05-10T12:35:07;14.17;;;9.93;;
2934;SDS011;2462;51.456;7.248;2023-05-10T12:37:34;12.03;;;9.47;;
2934;SDS011;2462;51.456;7.248;2023-05-10T12:40:04;11.23;;;9.57;;
2934;SDS011;2462;51.456;7.248;2023-05-10T12:42:31;11.87;;;10.50;;
2934;SDS011;2462;51.456;7.248;2023-05-10T12:44:57;14.40;;;11.30;;
2934;SDS011;2462;51.456;7.248;2023-05-10T12:47:23;14.07;;;10.43;;
2934;SDS011;2462;51.456;7.248;2023-05-10T12:49:48;10.37;;;9.27;;
2934;SDS011;2462;51.456;7.248;2023-05-10T12:52:16;13.30;;;10.20;;
2934;SDS011;2462;51.456;7.248;2023-05-10T12:54:42;11.30;;;9.70;;
2934;SDS011;2462;51.456;7.248;2023-05-10T12:57:07;13.97;;;10.43;;
2934;SDS011;2462;51.456;7.248;2023-05-10T12:59:33;12.23;;;10.17;;
2934;SDS011;2462;51.456;7.248;2023-05-10T13:01:59;15.30;;;9.70;;
2934;SDS011;2462;51.456;7.248;2023-05-10T13:04:25;10.70;;;9.50;;
2934;SDS011;2462;51.456;7.248;2023-05-10T13:06:51;11.77;;;9.60;;
2934;SDS011;2462;51.456;7.248;2023-05-10T13:09:17;11.97;;;10.40;;
2934;SDS011;2462;51.456;7.248;2023-05-10T13:11:43;11.50;;;10.40;;
2934;SDS011;2462;51.456;7.248;2023-05-10T13:14:10;12.60;;;11.30;;
2934;SDS011;2462;51.456;7.248;2023-05-10T13:16:36;13.33;;;12.10;;
2934;SDS011;2462;51.456;7.248;2023-05-10T13:19:02;13.60;;;12.23;;
2934;SDS011;2462;51.456;7.248;2023-05-10T13:21:28;12.73;;;11.50;;
2934;SDS011;2462;51.456;7.248;2023-05-10T13:23:54;13.70;;;11.52;;
2934;SDS011;2462;51.456;7.248;2023-05-10T13:26:20;10.17;;;9.07;;
2934;SDS011;2462;51.456;7.248;2023-05-10T13:28:46;10.40;;;9.10;;
2934;SDS011;2462;51.456;7.248;2023-05-10T13:31:13;9.60;;;8.70;;
2934;SDS011;2462;51.456;7.248;2023-05-10T13:33:39;9.57;;;8.53;;
2934;SDS011;2462;51.456;7.248;2023-05-10T13:36:06;7.30;;;6.60;;
2934;SDS011;2462;51.456;7.248;2023-05-10T13:38:32;6.70;;;6.00;;
2934;SDS011;2462;51.456;7.248;2023-05-10T13:40:58;9.93;;;6.10;;
2934;SDS011;2462;51.456;7.248;2023-05-10T13:43:24;7.67;;;5.83;;
2934;SDS011;2462;51.456;7.248;2023-05-10T13:45:50;7.30;;;6.27;;
2934;SDS011;2462;51.456;7.248;2023-05-10T13:48:15;9.63;;;7.13;;
2934;SDS011;2462;51.456;7.248;2023-05-10T13:50:42;8.80;;;6.90;;
2934;SDS011;2462;51.456;7.248;2023-05-10T13:53:08;8.60;;;6.27;;
2934;SDS011;2462;51.456;7.248;2023-05-10T13:55:34;8.17;;;6.53;;
2934;SDS011;2462;51.456;7.248;2023-05-10T13:58:00;7.50;;;6.47;;
2934;SDS011;2462;51.456;7.248;2023-05-10T14:00:26;7.27;;;5.30;;
2934;SDS011;2462;51.456;7.248;2023-05-10T14:02:53;9.70;;;4.72;;
2934;SDS011;2462;51.456;7.248;2023-05-10T14:05:19;5.80;;;5.20;;
2934;SDS011;2462;51.456;7.248;2023-05-10T14:07:45;5.03;;;4.53;;
2934;SDS011;2462;51.456;7.248;2023-05-10T14:10:11;9.73;;;4.07;;
2934;SDS011;2462;51.456;7.248;2023-05-10T14:12:37;5.05;;;4.00;;
2934;SDS011;2462;51.456;7.248;2023-05-10T14:15:03;4.47;;;3.70;;
2934;SDS011;2462;51.456;7.248;2023-05-10T14:17:31;4.30;;;3.83;;
2934;SDS011;2462;51.456;7.248;2023-05-10T14:19:57;4.57;;;4.10;;
2934;SDS011;2462;51.456;7.248;2023-05-10T14:22:23;4.43;;;4.03;;
2934;SDS011;2462;51.456;7.248;2023-05-10T14:24:49;5.50;;;4.13;;
2934;SDS011;2462;51.456;7.248;2023-05-10T14:27:15;8.50;;;4.28;;
2934;SDS011;2462;51.456;7.248;2023-05-10T14:29:41;5.40;;;4.07;;
2934;SDS011;2462;51.456;7.248;2023-05-10T14:32:07;7.23;;;4.53;;
2934;SDS011;2462;51.456;7.248;2023-05-10T14:34:33;5.40;;;4.30;;
2934;SDS011;2462;51.456;7.248;2023-05-10T14:36:59;7.67;;;4.57;;
2934;SDS011;2462;51.456;7.248;2023-05-10T14:39:25;5.33;;;4.23;;
2934;SDS011;2462;51.456;7.248;2023-05-10T14:41:54;5.27;;;4.77;;
2934;SDS011;2462;51.456;7.248;2023-05-10T14:44:20;7.23;;;4.27;;
2934;SDS011;2462;51.456;7.248;2023-05-10T14:46:46;4.23;;;3.83;;
2934;SDS011;2462;51.456;7.248;2023-05-10T14:49:13;7.83;;;3.90;;
2934;SDS011;2462;51.456;7.248;2023-05-10T14:51:39;4.00;;;3.60;;
2934;SDS011;2462;51.456;7.248;2023-05-10T14:54:05;3.63;;;2.87;;
2934;SDS011;2462;51.456;7.248;2023-05-10T14:56:31;5.65;;;3.80;;
2934;SDS011;2462;51.456;7.248;2023-05-10T14:58:57;4.83;;;3.17;;
2934;SDS011;2462;51.456;7.248;2023-05-10T15:01:24;3.33;;;3.03;;
2934;SDS011;2462;51.456;7.248;2023-05-10T15:03:50;6.87;;;3.03;;
2934;SDS011;2462;51.456;7.248;2023-05-10T15:06:16;5.23;;;3.37;;
2934;SDS011;2462;51.456;7.248;2023-05-10T15:08:42;34.57;;;5.97;;
2934;SDS011;2462;51.456;7.248;2023-05-10T15:11:08;22.50;;;3.93;;
2934;SDS011;2462;51.456;7.248;2023-05-10T15:13:34;10.27;;;3.40;;
2934;SDS011;2462;51.456;7.248;2023-05-10T15:16:00;3.77;;;2.57;;
2934;SDS011;2462;51.456;7.248;2023-05-10T15:18:26;9.50;;;3.03;;
2934;SDS011;2462;51.456;7.248;2023-05-10T15:20:52;15.43;;;3.40;;
2934;SDS011;2462;51.456;7.248;2023-05-10T15:23:18;5.93;;;3.20;;
2934;SDS011;2462;51.456;7.248;2023-05-10T15:25:44;7.53;;;3.10;;
2934;SDS011;2462;51.456;7.248;2023-05-10T15:28:10;8.60;;;3.40;;
2934;SDS011;2462;51.456;7.248;2023-05-10T15:30:36;4.20;;;2.77;;
2934;SDS011;2462;51.456;7.248;2023-05-10T15:33:02;6.77;;;3.03;;